Time;durP1;ratioP1;P1;durP2;ratioP2;P2;SDS_P1;SDS_P2;PMS_P1;PMS_P2;Temp;Humidity;BMP_temperature;BMP_pressure;BME280_temperature;BME280_humidity;BME280_pressure;Samples;Min_cycle;Max_cycle;Signal;HPM_P1;HPM_P2
2021/07/03 00:02:13;;;;;;;11.38;7.83;;;;;;;21.18;77.46;100014.53;1656002;80;21048;-78
2021/07/03 00:04:39;;;;;;;13.03;9.65;;;;;;;21.16;77.57;100017.37;1674640;84;20905;-76
2021/07/03 00:07:07;;;;;;;12.60;10.75;;;;;;;21.15;77.38;100018.89;1714833;80;20919;-76
2021/07/03 00:09:36;;;;;;;13.03;8.53;;;;;;;21.11;77.45;100019.23;1683853;82;21118;-75
2021/07/03 00:12:10;;;;;;;13.38;9.03;;;;;;;21.11;77.69;100023.73;1708129;80;20953;-76
2021/07/03 00:14:40;;;;;;;9.03;8.20;;;;;;;21.11;78.16;100021.89;1772352;80;20955;-77
2021/07/03 00:17:07;;;;;;;11.05;8.25;;;;;;;21.08;78.35;100020.92;1718970;79;21125;-77
2021/07/03 00:19:36;;;;;;;13.18;8.75;;;;;;;21.07;78.56;100029.91;1685851;81;20922;-80
2021/07/03 00:22:03;;;;;;;10.23;8.53;;;;;;;21.04;78.36;100026.27;1658576;82;21718;-77
2021/07/03 00:24:32;;;;;;;14.58;8.90;;;;;;;21.00;78.38;100025.47;1692306;80;20905;-77
2021/07/03 00:27:01;;;;;;;11.25;9.18;;;;;;;20.97;78.45;100024.49;1731940;80;21019;31
2021/07/03 00:29:32;;;;;;;13.00;9.15;;;;;;;20.93;78.60;100021.84;1764998;79;20931;31
2021/07/03 00:31:59;;;;;;;11.30;9.73;;;;;;;20.90;78.75;100020.36;1747590;78;20894;-77
2021/07/03 00:34:30;;;;;;;14.28;9.13;;;;;;;20.85;78.73;100020.03;1775810;78;21090;31
2021/07/03 00:37:01;;;;;;;14.33;9.88;;;;;;;20.82;78.72;100016.39;1722298;80;20927;31
2021/07/03 00:39:29;;;;;;;15.00;9.20;;;;;;;20.78;78.80;100014.56;1672562;81;20893;-79
2021/07/03 00:41:56;;;;;;;11.12;9.55;;;;;;;20.74;78.89;100007.91;1751246;82;21375;-78
2021/07/03 00:44:30;;;;;;;11.73;9.90;;;;;;;20.67;79.05;100005.11;1740100;81;20994;31
2021/07/03 00:47:01;;;;;;;33.67;11.33;;;;;;;20.63;79.15;100010.95;1725617;80;21137;-77
2021/07/03 00:49:30;;;;;;;18.45;9.78;;;;;;;20.58;79.18;100010.14;1736228;79;20885;-76
2021/07/03 00:52:00;;;;;;;14.85;10.05;;;;;;;20.54;79.27;100006.13;1734534;80;20904;-79
2021/07/03 00:54:28;;;;;;;14.45;9.90;;;;;;;20.50;79.30;100004.83;1719519;79;21460;-79
2021/07/03 00:57:02;;;;;;;10.70;9.60;;;;;;;20.44;79.41;99994.35;1771706;78;20912;-77
2021/07/03 00:59:35;;;;;;;12.33;9.90;;;;;;;20.39;79.73;99991.38;1746617;78;21154;-73
2021/07/03 01:02:06;;;;;;;12.80;10.30;;;;;;;20.34;79.94;99995.55;1746045;78;21464;-77
2021/07/03 01:04:33;;;;;;;18.52;9.13;;;;;;;20.29;80.07;99999.55;1746513;78;20913;-77
2021/07/03 01:07:04;;;;;;;15.70;9.73;;;;;;;20.24;80.43;99994.41;1776242;80;20967;-80
2021/07/03 01:09:32;;;;;;;13.32;9.95;;;;;;;20.20;80.52;99993.09;1758045;80;21713;-79
2021/07/03 01:12:03;;;;;;;12.73;10.85;;;;;;;20.17;80.85;100003.58;1748603;79;20901;-79
2021/07/03 01:14:30;;;;;;;11.45;10.38;;;;;;;20.14;81.10;100002.57;1774485;78;21024;-78
2021/07/03 01:17:00;;;;;;;10.35;9.25;;;;;;;20.11;81.30;100000.77;1775725;78;20887;-77
2021/07/03 01:19:27;;;;;;;13.40;11.00;;;;;;;20.07;81.24;100009.58;1766300;79;20989;-78
2021/07/03 01:21:56;;;;;;;15.55;10.25;;;;;;;20.04;81.30;100004.09;1771091;78;20892;-78
2021/07/03 01:24:23;;;;;;;12.03;9.53;;;;;;;20.02;81.30;100000.77;1753395;81;21474;-78
2021/07/03 01:26:53;;;;;;;15.45;10.05;;;;;;;20.00;81.28;99996.62;1748612;78;20908;-78
2021/07/03 01:29:22;;;;;;;17.15;10.03;;;;;;;19.97;81.21;99992.98;1788473;80;20915;-77
2021/07/03 01:31:51;;;;;;;12.78;10.25;;;;;;;19.95;81.37;99993.13;1788683;78;20927;-77
2021/07/03 01:34:20;;;;;;;14.38;10.58;;;;;;;19.94;81.47;99985.31;1738810;80;20924;-78
2021/07/03 01:36:47;;;;;;;13.88;10.68;;;;;;;19.92;81.56;99983.31;1742445;81;21107;-79
2021/07/03 01:39:15;;;;;;;15.98;11.85;;;;;;;19.90;81.73;99989.30;1714598;78;21058;-78
2021/07/03 01:41:44;;;;;;;21.17;13.72;;;;;;;19.86;81.75;99980.84;1769186;79;21189;-77
2021/07/03 01:44:12;;;;;;;34.33;18.25;;;;;;;19.83;81.60;99987.81;1765118;79;21391;-77
2021/07/03 01:46:40;;;;;;;30.95;16.25;;;;;;;19.82;81.30;99984.33;1712446;78;21088;-77
2021/07/03 01:49:09;;;;;;;18.73;12.45;;;;;;;19.85;81.12;99979.16;1743998;78;22020;-78
2021/07/03 01:51:49;;;;;;;16.70;10.98;;;;;;;19.91;81.03;99989.65;1744366;81;20861;-73
2021/07/03 01:54:19;;;;;;;18.85;10.00;;;;;;;19.95;80.67;99998.45;1792348;77;20941;-78
2021/07/03 01:56:58;;;;;;;20.82;9.25;;;;;;;20.01;80.53;99997.79;1805768;79;20888;-78
2021/07/03 01:59:32;;;;;;;13.10;10.03;;;;;;;20.06;79.76;99999.44;1770212;79;20844;-78
2021/07/03 02:02:02;;;;;;;20.08;11.03;;;;;;;20.13;80.23;99994.77;1770903;78;21127;-76
2021/07/03 02:04:31;;;;;;;30.72;15.38;;;;;;;20.17;80.08;99990.78;1735966;81;21400;-76
2021/07/03 02:06:58;;;;;;;31.05;13.22;;;;;;;20.20;79.72;99979.78;1773113;79;21414;-78
2021/07/03 02:09:28;;;;;;;15.55;8.45;;;;;;;20.23;79.37;99980.28;1780145;78;21030;-75
2021/07/03 02:11:57;;;;;;;18.65;9.10;;;;;;;20.27;78.28;99981.57;1794274;76;20924;-72
2021/07/03 02:14:26;;;;;;;19.12;13.00;;;;;;;20.34;77.60;99983.05;1805131;77;21130;-78
2021/07/03 02:17:12;;;;;;;32.35;17.85;;;;;;;20.40;77.79;99981.04;1793442;78;21370;-75
2021/07/03 02:19:40;;;;;;;28.23;17.62;;;;;;;20.45;78.48;99982.71;1759619;78;21150;-77
2021/07/03 02:22:08;;;;;;;41.37;22.48;;;;;;;20.48;78.57;99986.34;1715077;80;21001;-75
2021/07/03 02:24:37;;;;;;;37.10;20.20;;;;;;;20.50;78.46;99987.52;1708204;83;21034;-75
2021/07/03 02:27:04;;;;;;;29.00;17.23;;;;;;;20.50;78.51;99988.34;1731823;83;21122;-75
2021/07/03 02:29:32;;;;;;;30.65;18.10;;;;;;;20.50;78.37;99992.84;1708173;83;21432;-74
2021/07/03 02:32:00;;;;;;;30.62;17.40;;;;;;;20.50;78.43;99985.68;1731802;83;20922;-74
2021/07/03 02:34:28;;;;;;;23.60;11.73;;;;;;;20.50;78.76;99984.34;1708157;83;21396;-76
2021/07/03 02:37:01;;;;;;;20.10;12.03;;;;;;;20.52;78.26;99985.52;1731803;82;20914;-77
2021/07/03 02:39:27;;;;;;;19.73;12.95;;;;;;;20.55;76.94;99984.34;1722185;83;21161;-76
2021/07/03 02:41:54;;;;;;;27.82;13.18;;;;;;;20.58;76.52;99979.51;1754886;81;20915;-77
2021/07/03 02:44:22;;;;;;;23.75;14.87;;;;;;;20.64;76.00;99985.48;1754827;81;20939;-76
2021/07/03 02:46:50;;;;;;;24.82;15.13;;;;;;;20.69;75.67;99981.79;1754808;81;20908;-75
2021/07/03 02:49:20;;;;;;;39.27;22.65;;;;;;;20.76;75.76;99983.77;1753537;79;20909;-73
2021/07/03 02:51:47;;;;;;;47.48;26.90;;;;;;;20.81;75.58;99981.40;1730272;81;21148;-76
2021/07/03 02:54:14;;;;;;;54.10;28.75;;;;;;;20.84;75.78;99979.73;1777560;78;21500;-73
2021/07/03 02:56:42;;;;;;;53.98;29.23;;;;;;;20.91;74.94;99980.69;1770741;78;20880;-76
2021/07/03 02:59:09;;;;;;;53.25;28.27;;;;;;;20.97;74.61;99988.50;1764618;80;20869;-77
2021/07/03 03:01:36;;;;;;;53.92;28.52;;;;;;;21.03;73.82;99989.11;1689221;81;20901;-78
2021/07/03 03:04:08;;;;;;;57.03;28.55;;;;;;;21.07;72.81;99989.92;1704643;81;21167;31
2021/07/03 03:06:35;;;;;;;58.17;29.02;;;;;;;21.15;72.46;99993.56;1753076;78;20963;-80
2021/07/03 03:09:02;;;;;;;54.08;27.37;;;;;;;21.21;72.11;99985.69;1709771;78;21689;-82
2021/07/03 03:11:31;;;;;;;59.77;28.32;;;;;;;21.27;72.14;99984.14;1717116;79;20877;-78
2021/07/03 03:14:01;;;;;;;46.42;23.57;;;;;;;21.32;71.15;99983.94;1689784;79;20878;31
2021/07/03 03:16:29;;;;;;;42.15;25.12;;;;;;;21.40;71.37;99976.88;1736437;79;21183;-80
2021/07/03 03:18:59;;;;;;;51.63;26.20;;;;;;;21.46;71.38;99985.03;1758629;80;21312;-82
2021/07/03 03:21:27;;;;;;;46.10;25.23;;;;;;;21.52;71.05;99986.14;1731101;79;20962;-80
2021/07/03 03:24:02;;;;;;;65.10;28.17;;;;;;;21.58;70.62;99981.94;1720834;81;21480;-83
2021/07/03 03:26:31;;;;;;;48.78;26.27;;;;;;;21.63;70.31;99984.41;1697168;84;20891;-83
2021/07/03 03:28:57;;;;;;;53.90;24.90;;;;;;;21.69;70.03;99984.18;1693880;81;21111;-79
2021/07/03 03:31:29;;;;;;;42.67;24.72;;;;;;;21.73;69.76;99986.30;1708567;80;20865;31
2021/07/03 03:33:56;;;;;;;41.80;23.80;;;;;;;21.79;69.75;99989.25;1700992;81;20894;-83
2021/07/03 03:36:23;;;;;;;47.62;22.10;;;;;;;21.83;69.63;99990.56;1731160;81;20891;-78
2021/07/03 03:38:51;;;;;;;20.65;11.97;;;;;;;21.86;69.50;99992.88;1723442;79;20949;-77
2021/07/03 03:41:20;;;;;;;22.27;11.85;;;;;;;21.89;70.00;99977.83;1711859;80;21391;-82
2021/07/03 03:43:47;;;;;;;14.75;8.00;;;;;;;21.88;70.81;99968.17;1708859;81;21451;-80
2021/07/03 03:46:15;;;;;;;10.50;7.10;;;;;;;21.83;71.13;99975.88;1705416;83;21440;-80
2021/07/03 03:48:46;;;;;;;11.73;7.15;;;;;;;21.78;71.30;99968.41;1680925;80;20927;31
2021/07/03 03:51:16;;;;;;;7.80;6.62;;;;;;;21.72;71.53;99973.98;1727066;79;21202;-78
2021/07/03 03:53:44;;;;;;;10.68;6.95;;;;;;;21.68;71.79;99977.20;1731625;79;21228;-79
2021/07/03 03:56:11;;;;;;;14.07;8.60;;;;;;;21.66;72.12;99973.36;1727970;79;20899;-78
2021/07/03 03:58:40;;;;;;;25.68;13.08;;;;;;;21.65;72.41;99966.35;1768678;79;21424;-78
2021/07/03 04:01:08;;;;;;;26.55;14.63;;;;;;;21.67;72.95;99959.00;1730010;78;20991;-77
2021/07/03 04:03:39;;;;;;;22.10;11.15;;;;;;;21.70;73.29;99953.31;1751896;78;20940;31
2021/07/03 04:06:11;;;;;;;15.58;10.80;;;;;;;21.74;73.56;99941.75;1706047;79;21071;31
2021/07/03 04:08:38;;;;;;;16.95;9.00;;;;;;;21.79;73.09;99942.55;1710298;80;21003;-82
2021/07/03 04:11:12;;;;;;;16.30;9.38;;;;;;;21.83;72.79;99938.50;1731364;78;20976;31
2021/07/03 04:13:50;;;;;;;15.03;9.35;;;;;;;21.85;72.62;99943.16;1701822;79;21055;31
2021/07/03 04:16:19;;;;;;;12.53;8.40;;;;;;;21.86;72.61;99932.30;1717901;79;20971;-80
2021/07/03 04:18:45;;;;;;;12.63;8.68;;;;;;;21.90;73.16;99926.11;1741343;80;21104;-81
2021/07/03 04:21:13;;;;;;;15.72;9.80;;;;;;;21.91;72.97;99932.58;1743976;81;20875;-78
2021/07/03 04:23:46;;;;;;;11.20;9.40;;;;;;;21.94;73.24;99934.05;1702293;80;20913;31
2021/07/03 04:26:13;;;;;;;14.40;9.25;;;;;;;21.94;73.16;99940.24;1717927;80;20928;-78
2021/07/03 04:28:39;;;;;;;20.88;10.78;;;;;;;21.98;73.28;99955.89;1673462;80;20894;-80
2021/07/03 04:31:07;;;;;;;13.18;9.90;;;;;;;22.01;73.31;99948.83;1652961;86;21561;-80
2021/07/03 04:33:34;;;;;;;15.95;10.90;;;;;;;22.05;73.83;99939.45;1712645;80;21544;-78
2021/07/03 04:36:01;;;;;;;17.75;10.80;;;;;;;22.09;74.44;99925.54;1773128;79;21039;-83
2021/07/03 04:38:28;;;;;;;17.45;10.65;;;;;;;22.14;74.97;99935.67;1804165;79;20880;-82
2021/07/03 04:40:54;;;;;;;15.65;10.98;;;;;;;22.21;75.42;99947.78;1740970;79;21601;-79
2021/07/03 04:43:25;;;;;;;20.08;10.63;;;;;;;22.26;74.41;99965.47;1758574;78;21068;31
2021/07/03 04:45:55;;;;;;;21.25;11.75;;;;;;;22.31;74.84;99969.23;1717515;79;21487;31
2021/07/03 04:48:24;;;;;;;16.27;10.53;;;;;;;22.40;75.09;99991.86;1689569;79;21485;31
2021/07/03 04:50:59;;;;;;;23.25;12.05;;;;;;;22.47;75.25;100008.80;1709315;80;20976;31
2021/07/03 04:53:26;;;;;;;15.13;11.93;;;;;;;22.53;75.45;100032.95;1764531;78;20998;-82
2021/07/03 04:55:53;;;;;;;18.70;10.50;;;;;;;22.58;75.33;100024.89;1846705;77;21155;-83
2021/07/03 04:58:20;;;;;;;18.42;13.08;;;;;;;22.60;75.55;100016.17;1825052;78;20872;-79
2021/07/03 05:00:47;;;;;;;17.15;11.53;;;;;;;22.62;75.59;100014.15;1816801;77;20886;-80
2021/07/03 05:03:14;;;;;;;15.43;11.33;;;;;;;22.62;75.72;100018.16;1790097;78;20892;-80
2021/07/03 05:05:48;;;;;;;18.70;10.40;;;;;;;22.61;75.36;100019.16;1797761;78;21106;-78
2021/07/03 05:08:15;;;;;;;13.75;10.45;;;;;;;22.58;75.08;100016.87;1713932;83;21132;-81
2021/07/03 05:10:43;;;;;;;21.60;11.18;;;;;;;22.51;75.39;100022.12;1758561;79;20920;-79
2021/07/03 05:13:10;;;;;;;15.30;10.65;;;;;;;22.46;75.60;100025.86;1655916;80;20952;-79
2021/07/03 05:15:37;;;;;;;16.87;11.40;;;;;;;22.40;75.74;100005.22;1631657;86;21489;-80
2021/07/03 05:18:06;;;;;;;17.75;11.63;;;;;;;22.30;75.91;100014.34;1663503;81;20899;-74
2021/07/03 05:20:33;;;;;;;15.85;11.38;;;;;;;22.22;75.62;100001.06;1727403;78;21369;-72
2021/07/03 05:23:07;;;;;;;13.38;11.00;;;;;;;22.16;76.08;100004.42;1734623;79;20976;31
2021/07/03 05:25:34;;;;;;;32.75;24.80;;;;;;;22.09;75.72;100003.50;1738370;77;20911;-73
2021/07/03 05:28:01;;;;;;;23.60;17.90;;;;;;;22.05;75.87;99998.19;1769459;76;20942;-73
2021/07/03 05:30:30;;;;;;;27.67;18.10;;;;;;;21.98;76.04;99987.92;1766218;78;20931;-75
2021/07/03 05:32:59;;;;;;;20.62;16.77;;;;;;;21.91;75.98;99990.49;1727614;80;21549;31
2021/07/03 05:35:32;;;;;;;24.12;17.85;;;;;;;21.87;76.48;99991.86;1618559;85;20899;31
2021/07/03 05:37:58;;;;;;;20.73;16.37;;;;;;;21.83;77.01;99991.41;1744854;81;21388;-73
2021/07/03 05:40:26;;;;;;;25.17;18.45;;;;;;;21.80;77.53;100001.09;1712674;80;21635;-77
2021/07/03 05:42:52;;;;;;;23.42;13.78;;;;;;;21.78;78.17;100004.45;1769339;78;20965;-77
2021/07/03 05:45:19;;;;;;;15.98;12.88;;;;;;;21.75;77.84;100010.67;1766071;76;21341;-74
2021/07/03 05:47:51;;;;;;;18.77;15.58;;;;;;;21.71;77.37;100010.19;1766033;79;20881;-77
2021/07/03 05:50:32;;;;;;;18.90;16.35;;;;;;;21.69;78.05;100009.02;1768398;79;20971;31
2021/07/03 05:53:01;;;;;;;22.48;16.37;;;;;;;21.67;78.69;100020.89;1650521;85;21036;-71
2021/07/03 05:55:31;;;;;;;22.48;15.72;;;;;;;21.65;79.58;100022.39;1695445;78;20975;-69
2021/07/03 05:58:01;;;;;;;26.15;17.80;;;;;;;21.63;80.04;100026.25;1709817;79;21157;-73
2021/07/03 06:00:28;;;;;;;21.02;17.65;;;;;;;21.61;80.40;100022.93;1760771;79;21392;-70
2021/07/03 06:02:55;;;;;;;23.80;18.20;;;;;;;21.60;80.73;100039.97;1714996;83;20900;-71
2021/07/03 06:05:23;;;;;;;23.90;17.82;;;;;;;21.58;81.21;100038.80;1749914;78;21034;-71
2021/07/03 06:07:51;;;;;;;26.77;17.07;;;;;;;21.58;81.52;100030.80;1762507;77;20924;-73
2021/07/03 06:10:18;;;;;;;23.15;17.50;;;;;;;21.57;81.83;100030.99;1745900;81;22732;-73
2021/07/03 06:12:45;;;;;;;18.75;15.28;;;;;;;21.55;82.16;100024.49;1698785;78;20908;-72
2021/07/03 06:15:16;;;;;;;18.50;14.75;;;;;;;21.53;82.30;100023.33;1654299;86;20958;-71
2021/07/03 06:17:43;;;;;;;21.68;14.73;;;;;;;21.52;82.60;100019.49;1653543;83;20865;-72
2021/07/03 06:20:12;;;;;;;15.28;13.60;;;;;;;21.50;82.88;100011.69;1654309;86;21387;-72
2021/07/03 06:22:39;;;;;;;15.83;14.07;;;;;;;21.49;82.94;100013.19;1654309;86;21220;-72
2021/07/03 06:25:08;;;;;;;21.60;15.45;;;;;;;21.46;83.09;100004.22;1654216;86;20944;-71
2021/07/03 06:27:35;;;;;;;31.80;23.27;;;;;;;21.43;83.00;99996.55;1654248;86;20854;-70
2021/07/03 06:30:04;;;;;;;30.00;22.37;;;;;;;21.40;82.89;100010.23;1684803;80;21070;-71
2021/07/03 06:32:32;;;;;;;22.10;17.32;;;;;;;21.38;82.63;100017.06;1730486;81;21357;-71
2021/07/03 06:34:59;;;;;;;22.70;18.75;;;;;;;21.37;82.01;100024.75;1730474;81;21417;-70
2021/07/03 06:37:26;;;;;;;21.95;19.40;;;;;;;21.36;81.97;100014.25;1716199;79;20881;-74
2021/07/03 06:39:53;;;;;;;22.93;17.20;;;;;;;21.36;82.03;100010.25;1750551;79;20959;-73
2021/07/03 06:42:20;;;;;;;18.02;16.10;;;;;;;21.36;82.14;100006.25;1754820;79;20904;-72
2021/07/03 06:44:49;;;;;;;22.13;16.45;;;;;;;21.36;82.33;100003.07;1754158;78;20931;-73
2021/07/03 06:47:16;;;;;;;29.02;19.87;;;;;;;21.38;81.95;100021.06;1749582;79;21164;-72
2021/07/03 06:49:43;;;;;;;28.02;19.32;;;;;;;21.39;81.80;100013.41;1775313;79;20923;-73
2021/07/03 06:52:10;;;;;;;22.55;18.62;;;;;;;21.39;81.74;100022.74;1774050;80;21315;-73
2021/07/03 06:54:41;;;;;;;24.30;17.30;;;;;;;21.44;81.94;100046.25;1785538;79;20962;-72
2021/07/03 06:57:11;;;;;;;26.17;17.05;;;;;;;21.49;82.05;100041.20;1744131;79;20912;-73
2021/07/03 06:59:38;;;;;;;31.65;23.10;;;;;;;21.56;82.05;100056.00;1732550;78;21213;-72
2021/07/03 07:02:04;;;;;;;25.12;21.57;;;;;;;21.66;82.14;100052.60;1699436;80;21034;-72
2021/07/03 07:04:31;;;;;;;31.35;19.55;;;;;;;21.77;81.84;100064.70;1759520;77;20919;-71
2021/07/03 07:06:59;;;;;;;20.10;16.00;;;;;;;21.88;82.33;100055.76;1725091;79;21527;-72
2021/07/03 07:09:27;;;;;;;23.80;19.23;;;;;;;22.02;82.17;100045.30;1713192;80;20899;-70
2021/07/03 07:11:57;;;;;;;20.92;15.78;;;;;;;22.14;80.59;100054.52;1719386;82;21868;-70
2021/07/03 07:14:23;;;;;;;26.25;17.55;;;;;;;22.24;79.62;100054.31;1785052;80;21003;-69
2021/07/03 07:16:51;;;;;;;23.10;16.57;;;;;;;22.32;78.93;100055.06;1758570;79;20882;-71
2021/07/03 07:19:19;;;;;;;24.00;18.63;;;;;;;22.41;78.00;100051.80;1776744;79;20892;-71
2021/07/03 07:21:49;;;;;;;25.75;18.87;;;;;;;22.48;78.06;100042.03;1773181;78;20892;31
2021/07/03 07:24:18;;;;;;;21.05;14.85;;;;;;;22.55;77.59;100048.29;1706893;81;21035;-74
2021/07/03 07:26:52;;;;;;;17.50;13.65;;;;;;;22.62;77.28;100051.57;1721784;77;20930;-79
2021/07/03 07:29:19;;;;;;;12.33;11.03;;;;;;;22.65;77.01;100041.84;1687546;81;20821;-72
2021/07/03 07:31:49;;;;;;;16.90;12.20;;;;;;;22.67;76.38;100039.30;1714676;82;20873;-71
2021/07/03 07:34:16;;;;;;;16.37;11.35;;;;;;;22.69;76.04;100054.64;1721050;80;21428;-73
2021/07/03 07:36:45;;;;;;;13.98;11.93;;;;;;;22.71;76.16;100033.91;1739256;80;20850;-72
2021/07/03 07:39:12;;;;;;;15.68;12.03;;;;;;;22.74;76.81;100028.69;1726969;80;21430;-74
2021/07/03 07:41:42;;;;;;;15.05;11.60;;;;;;;22.76;77.45;100031.49;1709013;84;20880;-73
2021/07/03 07:44:09;;;;;;;15.00;11.88;;;;;;;22.78;77.57;100033.17;1742467;79;20888;-71
2021/07/03 07:46:36;;;;;;;13.08;11.12;;;;;;;22.81;77.18;100030.11;1739536;78;21400;-76
2021/07/03 07:49:05;;;;;;;11.70;10.50;;;;;;;22.87;77.61;100038.73;1762530;79;21130;-77
2021/07/03 07:51:32;;;;;;;12.80;11.28;;;;;;;22.94;77.94;100050.33;1765672;79;21423;-77
2021/07/03 07:53:59;;;;;;;17.40;11.40;;;;;;;23.02;77.96;100043.58;1772900;79;20881;-71
2021/07/03 07:56:30;;;;;;;16.40;12.28;;;;;;;23.07;78.34;100046.52;1748411;76;20993;-72
2021/07/03 07:58:59;;;;;;;13.38;11.08;;;;;;;23.14;77.44;100050.12;1708451;81;20905;-75
2021/07/03 08:01:26;;;;;;;16.42;12.35;;;;;;;23.19;77.22;100040.19;1717444;80;21135;-74
2021/07/03 08:03:53;;;;;;;14.85;11.70;;;;;;;23.22;76.45;100043.81;1699377;80;21344;-75
2021/07/03 08:06:20;;;;;;;15.32;11.48;;;;;;;23.26;76.17;100051.78;1694986;84;20981;-78
2021/07/03 08:08:48;;;;;;;12.95;10.20;;;;;;;23.29;75.43;100052.73;1713792;83;20878;-76
2021/07/03 08:13:10;;;;;;;11.88;10.60;;;;;;;23.43;74.78;100059.05;1798625;79;22463;-74
2021/07/03 08:15:37;;;;;;;14.15;10.72;;;;;;;23.43;74.12;100045.67;1692568;78;21316;-70
2021/07/03 08:18:04;;;;;;;16.95;10.38;;;;;;;23.52;74.19;100064.63;1661166;81;22135;-74
2021/07/03 08:20:33;;;;;;;13.72;9.13;;;;;;;23.58;71.71;100050.97;1692440;79;20894;-75
2021/07/03 08:23:00;;;;;;;17.27;10.58;;;;;;;23.62;70.27;100051.44;1707168;78;20958;-69
2021/07/03 08:25:27;;;;;;;14.38;9.50;;;;;;;23.66;70.71;100048.18;1712739;79;21401;-75
2021/07/03 08:27:54;;;;;;;15.72;10.18;;;;;;;23.59;70.47;100028.04;1700704;84;21014;-75
2021/07/03 08:30:21;;;;;;;16.02;8.93;;;;;;;23.73;70.34;100044.23;1700818;84;21536;-75
2021/07/03 08:32:48;;;;;;;16.52;8.78;;;;;;;23.73;67.64;100044.23;1695994;79;20943;-75
2021/07/03 08:35:15;;;;;;;10.75;7.95;;;;;;;23.73;68.38;100050.92;1743701;78;20903;-75
2021/07/03 08:37:44;;;;;;;11.45;8.90;;;;;;;23.76;69.44;100061.27;1727918;78;20926;-75
2021/07/03 08:40:13;;;;;;;10.58;7.50;;;;;;;23.77;68.39;100073.66;1674837;80;20971;-70
2021/07/03 08:42:39;;;;;;;12.63;7.83;;;;;;;23.75;66.17;100091.23;1736584;79;21140;-75
2021/07/03 08:45:07;;;;;;;8.10;7.10;;;;;;;23.72;66.89;100084.05;1721394;79;20970;-74
2021/07/03 08:47:41;;;;;;;6.75;5.80;;;;;;;23.68;64.61;100079.61;1675171;78;21450;-73
2021/07/03 08:50:10;;;;;;;6.53;4.83;;;;;;;23.59;63.51;100070.87;1722089;79;20981;-73
2021/07/03 08:52:41;;;;;;;8.40;6.10;;;;;;;23.52;63.66;100074.48;1703099;80;21730;-66
2021/07/03 08:55:23;;;;;;;6.92;5.15;;;;;;;23.45;63.85;100083.78;1724398;79;21138;-70
2021/07/03 08:57:55;;;;;;;9.10;6.75;;;;;;;23.38;61.70;100091.73;1670742;80;20857;-79
2021/07/03 09:00:32;;;;;;;11.63;7.90;;;;;;;23.27;61.67;100089.55;1729069;83;20928;-79
2021/07/03 09:06:06;;;;;;;20.95;13.00;;;;;;;23.17;62.05;100089.03;1718288;79;20920;-80
2021/07/03 09:08:49;;;;;;;22.20;11.63;;;;;;;23.11;61.76;100078.56;1700695;78;23220;-70
2021/07/03 09:11:38;;;;;;;14.60;8.23;;;;;;;23.09;61.26;100079.25;1707765;80;21294;-80
2021/07/03 09:14:12;;;;;;;14.23;7.33;;;;;;;23.04;61.72;100072.82;1737962;78;20870;-82
2021/07/03 09:16:41;;;;;;;7.85;5.97;;;;;;;23.03;61.98;100065.80;1756469;81;20867;-79
2021/07/03 09:19:09;;;;;;;14.13;7.45;;;;;;;23.01;61.44;100057.98;1760626;81;20941;-79
2021/07/03 09:21:36;;;;;;;10.50;6.22;;;;;;;23.00;61.36;100057.64;1715954;79;21119;-78
2021/07/03 09:24:15;;;;;;;11.43;4.90;;;;;;;23.00;61.70;100057.64;1744592;80;21092;-82
2021/07/03 09:27:01;;;;;;;12.10;8.30;;;;;;;23.00;62.07;100060.84;1746962;82;20923;-82
2021/07/03 09:29:28;;;;;;;15.93;11.33;;;;;;;23.02;61.87;100049.45;1722930;78;20955;-78
2021/07/03 09:32:00;;;;;;;16.87;10.85;;;;;;;23.06;61.97;100038.70;1726675;83;20909;-77
2021/07/03 09:34:27;;;;;;;21.52;11.45;;;;;;;23.08;61.96;100042.84;1709561;79;21151;-81
2021/07/03 09:37:08;;;;;;;16.45;9.43;;;;;;;23.13;61.81;100049.78;1702487;78;20965;-73
2021/07/03 09:39:38;;;;;;;19.23;9.65;;;;;;;23.18;62.55;100038.00;1669264;84;20974;-80
2021/07/03 09:42:14;;;;;;;17.40;9.73;;;;;;;23.30;62.63;100034.83;1711373;80;21511;-77
2021/07/03 09:44:41;;;;;;;17.62;10.82;;;;;;;23.41;62.65;100038.86;1723246;80;21025;-75
2021/07/03 09:47:15;;;;;;;15.28;9.43;;;;;;;23.51;62.10;100033.52;1719467;78;21462;-74
2021/07/03 09:49:48;;;;;;;13.65;10.20;;;;;;;23.58;60.75;100031.72;1744634;79;20896;-76
2021/07/03 09:52:15;;;;;;;16.57;8.85;;;;;;;23.66;60.63;100037.47;1700914;83;20884;-76
2021/07/03 09:54:44;;;;;;;12.07;7.58;;;;;;;23.76;60.19;100034.48;1678743;82;20951;-85
2021/07/03 09:57:26;;;;;;;13.80;8.10;;;;;;;23.85;59.65;100025.81;1764944;79;21390;-80
2021/07/03 09:59:59;;;;;;;10.93;7.75;;;;;;;23.94;59.97;100008.06;1744656;79;21127;-77
2021/07/03 10:02:33;;;;;;;14.13;7.40;;;;;;;24.12;59.90;100003.58;1734591;79;20944;31
2021/07/03 10:05:00;;;;;;;13.30;7.42;;;;;;;24.31;58.95;100003.37;1716777;80;21572;-77
2021/07/03 10:07:36;;;;;;;14.55;9.45;;;;;;;24.52;58.81;99998.48;1687420;81;20969;-78
2021/07/03 10:10:11;;;;;;;10.90;7.05;;;;;;;24.80;59.13;99997.56;1697552;81;21516;-76
2021/07/03 10:12:43;;;;;;;12.15;7.53;;;;;;;25.16;58.89;99993.75;1689398;84;20912;-73
2021/07/03 10:15:10;;;;;;;13.15;6.72;;;;;;;25.48;56.66;99990.86;1689245;85;21385;-76
2021/07/03 10:17:39;;;;;;;13.93;7.80;;;;;;;25.72;55.92;99987.23;1689405;85;20872;-73
2021/07/03 10:20:10;;;;;;;12.93;6.60;;;;;;;25.87;55.89;99976.29;1691239;79;21391;-77
2021/07/03 10:22:37;;;;;;;11.12;5.70;;;;;;;26.09;54.34;99984.98;1712384;83;21011;-78
2021/07/03 10:25:41;;;;;;;5.75;4.12;;;;;;;26.25;53.65;99970.55;1714682;79;21114;-80
2021/07/03 10:28:10;;;;;;;;;;;;;;;26.46;54.05;99965.97;1704260;78;20964;-78
2021/07/03 10:30:40;;;;;;;5.33;3.67;;;;;;;26.86;53.88;99957.23;1675825;85;20135;-76
2021/07/03 10:33:14;;;;;;;8.60;6.75;;;;;;;27.19;52.62;99952.67;1707223;80;21481;-79
2021/07/03 10:35:51;;;;;;;9.60;5.15;;;;;;;27.46;51.78;99947.44;1732693;82;21022;-81
2021/07/03 10:38:43;;;;;;;7.50;5.83;;;;;;;27.73;51.05;99948.56;1749880;79;20976;-87
2021/07/03 10:41:16;;;;;;;10.98;6.40;;;;;;;28.04;49.99;99954.94;1708058;79;21473;-83
2021/07/03 10:44:21;;;;;;;13.48;9.40;;;;;;;28.37;50.83;99951.03;1758775;77;21532;-84
2021/07/03 10:46:54;;;;;;;26.57;17.92;;;;;;;28.71;48.65;99939.64;1711297;82;20976;-85
2021/07/03 10:49:30;;;;;;;19.62;11.65;;;;;;;29.00;47.60;99944.45;1710813;81;20916;-85
2021/07/03 10:52:03;;;;;;;9.58;7.05;;;;;;;29.16;47.00;99950.56;1719627;82;22909;-85
2021/07/03 10:54:30;;;;;;;8.43;4.62;;;;;;;29.32;46.88;99962.57;1716714;80;20901;-83
2021/07/03 10:57:01;;;;;;;5.42;3.80;;;;;;;29.42;46.08;99964.72;1692538;81;20942;-85
2021/07/03 10:59:34;;;;;;;9.75;4.10;;;;;;;29.44;46.50;99974.77;1708678;81;21387;-82
2021/07/03 11:02:18;;;;;;;6.15;4.37;;;;;;;29.40;46.54;99964.95;1729233;77;20953;-84
2021/07/03 11:04:54;;;;;;;14.55;10.75;;;;;;;29.24;46.45;99974.55;1718702;80;21163;-88
2021/07/03 11:07:32;;;;;;;16.45;10.55;;;;;;;29.01;46.62;99975.78;1697932;80;20975;-83
2021/07/03 11:10:15;;;;;;;15.05;9.33;;;;;;;28.77;47.28;99978.90;1671246;83;20953;-78
2021/07/03 11:12:53;;;;;;;9.15;7.67;;;;;;;28.55;47.99;99976.70;1745415;79;20889;-82
2021/07/03 11:15:27;;;;;;;10.38;7.05;;;;;;;28.34;48.77;99980.63;1778876;80;20917;-84
2021/07/03 11:18:12;;;;;;;10.85;6.17;;;;;;;28.16;48.87;99980.09;1687293;79;20913;-86
2021/07/03 11:20:40;;;;;;;9.63;6.55;;;;;;;27.95;49.89;99978.66;1715834;80;20971;-80
2021/07/03 11:23:13;;;;;;;11.38;8.08;;;;;;;27.77;50.59;99975.38;1712823;80;20956;-79
2021/07/03 11:25:45;;;;;;;15.20;9.73;;;;;;;27.63;51.02;99962.52;1714553;79;20875;-79
2021/07/03 11:28:18;;;;;;;12.00;9.03;;;;;;;27.55;51.42;99969.55;1736507;82;20863;-80
2021/07/03 11:30:56;;;;;;;7.60;5.15;;;;;;;27.44;51.05;99971.60;1740950;81;22225;-79
2021/07/03 11:33:28;;;;;;;8.10;4.55;;;;;;;27.29;51.36;99975.41;1735399;79;20930;-82
2021/07/03 11:35:55;;;;;;;8.33;4.97;;;;;;;27.10;51.94;99980.37;1724042;79;22747;-82